Time;durP1;ratioP1;P1;durP2;ratioP2;P2;SDS_P1;SDS_P2;PMS_P1;PMS_P2;Temp;Humidity;BMP_temperature;BMP_pressure;BME280_temperature;BME280_humidity;BME280_pressure;Samples;Min_cycle;Max_cycle;Signal;HPM_P1;HPM_P2
2023/06/28 00:00:54;;;;;;;1.67;0.65;;;;;;;;;;10353234;28;20046;-92
2023/06/28 00:05:58;;;;;;;1.73;0.60;;;;;;;;;;10358851;28;20053;-91
2023/06/28 00:11:03;;;;;;;0.45;0.40;;;;;;;;;;10373385;28;20128;-92
2023/06/28 00:16:06;;;;;;;1.05;0.43;;;;;;;;;;10361150;28;20120;-90
2023/06/28 00:21:13;;;;;;;0.70;0.45;;;;;;;;;;10364752;28;20137;-92
2023/06/28 00:26:18;;;;;;;0.85;0.50;;;;;;;;;;10373532;28;20057;-90
2023/06/28 00:31:22;;;;;;;0.85;0.52;;;;;;;;;;10370907;28;20116;-91
2023/06/28 00:36:25;;;;;;;1.23;0.40;;;;;;;;;;10370922;28;20133;-90
2023/06/28 00:41:30;;;;;;;0.98;0.50;;;;;;;;;;10369162;28;20049;-90
2023/06/28 00:46:34;;;;;;;1.00;0.43;;;;;;;;;;10375400;28;20060;-90
2023/06/28 00:51:38;;;;;;;1.48;0.40;;;;;;;;;;10369779;28;20416;-90
2023/06/28 00:56:44;;;;;;;2.28;1.20;;;;;;;;;;10375138;28;20661;-91
2023/06/28 01:01:49;;;;;;;0.97;0.40;;;;;;;;;;10348160;28;20493;-90
2023/06/28 01:06:55;;;;;;;0.50;0.50;;;;;;;;;;10364391;28;20441;-90
2023/06/28 01:12:01;;;;;;;0.60;0.45;;;;;;;;;;10358384;28;20156;-90
2023/06/28 01:17:05;;;;;;;0.57;0.40;;;;;;;;;;10366326;28;20050;-90
2023/06/28 01:22:12;;;;;;;1.27;0.60;;;;;;;;;;10362601;28;20592;-90
2023/06/28 01:27:17;;;;;;;0.70;0.40;;;;;;;;;;10358932;28;20057;-90
2023/06/28 01:32:21;;;;;;;1.73;0.50;;;;;;;;;;10384641;28;20073;-90
2023/06/28 01:37:25;;;;;;;1.13;0.65;;;;;;;;;;10357660;28;20799;-90
2023/06/28 01:42:31;;;;;;;1.48;0.60;;;;;;;;;;10373241;28;20061;-91
2023/06/28 01:47:34;;;;;;;0.80;0.77;;;;;;;;;;10360602;28;20042;-90
2023/06/28 01:52:38;;;;;;;1.85;0.63;;;;;;;;;;10357914;28;20479;-90
2023/06/28 01:57:44;;;;;;;0.90;0.50;;;;;;;;;;10359976;28;20046;-90
2023/06/28 02:02:48;;;;;;;;;;;;;;;;;;10370321;28;20053;-91
2023/06/28 02:07:51;;;;;;;0.63;0.50;;;;;;;;;;10364461;28;19965;-91
2023/06/28 02:12:57;;;;;;;2.22;0.60;;;;;;;;;;10355590;28;20049;-90
2023/06/28 02:18:00;;;;;;;0.47;0.47;;;;;;;;;;10371057;28;20073;-90
2023/06/28 02:23:06;;;;;;;0.50;0.40;;;;;;;;;;10350794;28;20064;-91
2023/06/28 02:28:13;;;;;;;0.70;0.68;;;;;;;;;;10356844;28;20049;-91
2023/06/28 02:33:20;;;;;;;0.73;0.52;;;;;;;;;;10353675;28;20060;-90
2023/06/28 02:38:24;;;;;;;1.50;0.52;;;;;;;;;;10361767;28;20611;-91
2023/06/28 02:43:29;;;;;;;0.40;0.40;;;;;;;;;;10374228;28;20108;-91
2023/06/28 02:48:32;;;;;;;2.33;0.50;;;;;;;;;;10363125;28;20081;-90
2023/06/28 02:53:36;;;;;;;0.55;0.50;;;;;;;;;;10358838;28;20080;-91
2023/06/28 02:58:42;;;;;;;0.90;0.52;;;;;;;;;;10356531;28;20046;-91
2023/06/28 03:03:46;;;;;;;0.63;0.47;;;;;;;;;;10365958;28;20130;-91
2023/06/28 03:08:49;;;;;;;0.52;0.43;;;;;;;;;;10361273;28;20390;-91
2023/06/28 03:13:55;;;;;;;0.73;0.40;;;;;;;;;;10366621;28;20120;-91
2023/06/28 03:18:58;;;;;;;0.98;0.50;;;;;;;;;;10362988;28;20066;-91
2023/06/28 03:24:02;;;;;;;0.47;0.30;;;;;;;;;;10361966;28;20038;-91
2023/06/28 03:29:07;;;;;;;0.73;0.45;;;;;;;;;;10346186;28;20063;-93
2023/06/28 03:34:11;;;;;;;1.37;0.37;;;;;;;;;;10368685;28;20084;-90
2023/06/28 03:39:15;;;;;;;0.63;0.50;;;;;;;;;;10357739;28;20389;-91
2023/06/28 03:44:20;;;;;;;0.80;0.50;;;;;;;;;;10350716;28;20042;-91
2023/06/28 03:49:24;;;;;;;1.23;0.57;;;;;;;;;;10357256;28;20505;-91
2023/06/28 03:54:27;;;;;;;1.75;0.60;;;;;;;;;;10358031;28;20542;-92
2023/06/28 03:59:34;;;;;;;1.35;0.60;;;;;;;;;;10379649;28;20046;-91
2023/06/28 04:04:41;;;;;;;3.10;0.90;;;;;;;;;;10360775;28;20049;-91
2023/06/28 04:09:47;;;;;;;0.95;0.43;;;;;;;;;;10375528;28;20045;-90
2023/06/28 04:14:52;;;;;;;1.42;0.70;;;;;;;;;;10382135;28;20042;-89
2023/06/28 04:19:56;;;;;;;2.10;0.73;;;;;;;;;;10379300;28;20050;-90
2023/06/28 04:24:59;;;;;;;1.70;1.05;;;;;;;;;;10393505;28;20288;-88
2023/06/28 04:30:08;;;;;;;2.70;0.70;;;;;;;;;;10365442;28;20050;-89
2023/06/28 04:35:14;;;;;;;1.48;0.60;;;;;;;;;;10394366;23;20053;-85
2023/06/28 04:40:17;;;;;;;2.03;0.60;;;;;;;;;;10382353;28;20073;-84
2023/06/28 04:45:36;;;;;;;0.65;0.43;;;;;;;;;;10386560;28;20053;-84
2023/06/28 04:50:39;;;;;;;1.35;0.60;;;;;;;;;;10378170;28;20124;-84
2023/06/28 04:55:43;;;;;;;2.13;0.43;;;;;;;;;;10364477;28;20077;-84
2023/06/28 05:00:48;;;;;;;1.85;0.75;;;;;;;;;;10364112;28;20042;-83
2023/06/28 05:05:51;;;;;;;0.50;0.40;;;;;;;;;;10389844;28;20124;-84
2023/06/28 05:10:55;;;;;;;2.13;0.77;;;;;;;;;;10374605;28;20088;-84
2023/06/28 05:15:59;;;;;;;1.58;0.60;;;;;;;;;;10395217;28;20128;-84
2023/06/28 05:21:03;;;;;;;2.05;0.60;;;;;;;;;;10389076;28;20042;-84
2023/06/28 05:26:06;;;;;;;2.15;0.52;;;;;;;;;;10376583;28;20049;-84
2023/06/28 05:31:12;;;;;;;1.23;0.50;;;;;;;;;;10352862;28;20488;-84
2023/06/28 05:36:18;;;;;;;1.52;0.60;;;;;;;;;;10392325;28;20045;-83
2023/06/28 05:41:23;;;;;;;1.98;0.82;;;;;;;;;;10375790;28;20063;-83
2023/06/28 05:46:30;;;;;;;2.85;0.45;;;;;;;;;;10370785;28;20612;-84
2023/06/28 05:51:34;;;;;;;1.00;0.77;;;;;;;;;;10375364;28;20069;-85
2023/06/28 05:56:38;;;;;;;0.80;0.50;;;;;;;;;;10394712;28;20046;-84
2023/06/28 06:01:43;;;;;;;1.77;0.43;;;;;;;;;;10359169;28;20486;-85
2023/06/28 06:06:46;;;;;;;0.82;0.60;;;;;;;;;;10379993;28;20050;-85
2023/06/28 06:11:49;;;;;;;3.42;0.70;;;;;;;;;;10372805;28;20076;-83
2023/06/28 06:16:54;;;;;;;2.47;0.90;;;;;;;;;;10373880;28;20069;-83
2023/06/28 06:21:58;;;;;;;2.08;0.60;;;;;;;;;;10366648;28;20044;-84
2023/06/28 06:27:02;;;;;;;3.55;0.77;;;;;;;;;;10391796;28;20072;-84
2023/06/28 06:32:08;;;;;;;2.05;0.60;;;;;;;;;;10381594;28;20101;-84
2023/06/28 06:37:12;;;;;;;1.30;0.60;;;;;;;;;;10381711;28;20065;-84
2023/06/28 06:42:16;;;;;;;1.33;0.57;;;;;;;;;;10381234;28;20504;-85
2023/06/28 06:47:22;;;;;;;1.17;0.73;;;;;;;;;;10379126;28;20060;-85
2023/06/28 06:52:25;;;;;;;1.35;0.60;;;;;;;;;;10376176;28;20397;-84
2023/06/28 06:57:28;;;;;;;1.08;0.70;;;;;;;;;;10388947;28;20092;-84
2023/06/28 07:02:33;;;;;;;1.10;0.77;;;;;;;;;;10351844;28;20124;-84
2023/06/28 07:07:36;;;;;;;1.23;0.40;;;;;;;;;;10395954;28;20049;-84
2023/06/28 07:12:41;;;;;;;2.88;0.60;;;;;;;;;;10373559;28;20140;-85
2023/06/28 07:17:46;;;;;;;1.10;0.50;;;;;;;;;;10372372;28;20050;-85
2023/06/28 07:22:49;;;;;;;0.60;0.50;;;;;;;;;;10378314;28;20432;-84
2023/06/28 07:27:53;;;;;;;1.63;0.55;;;;;;;;;;10364252;28;20328;-85
2023/06/28 07:32:58;;;;;;;1.75;0.80;;;;;;;;;;10395553;28;20136;-84
2023/06/28 07:38:01;;;;;;;1.75;0.68;;;;;;;;;;10379542;28;20195;-84
2023/06/28 07:43:04;;;;;;;1.98;0.63;;;;;;;;;;10391154;28;20049;-84
2023/06/28 07:48:09;;;;;;;1.80;0.80;;;;;;;;;;10374344;28;20886;-84
2023/06/28 07:53:12;;;;;;;1.33;0.80;;;;;;;;;;10363987;28;20070;-85
2023/06/28 07:58:16;;;;;;;1.45;0.70;;;;;;;;;;10378241;28;20046;-89
2023/06/28 08:03:20;;;;;;;1.52;0.70;;;;;;;;;;10367263;28;20069;-85
2023/06/28 08:08:24;;;;;;;3.15;0.88;;;;;;;;;;10360077;28;20058;-84
2023/06/28 08:13:27;;;;;;;2.90;0.68;;;;;;;;;;10376251;28;20055;-85
2023/06/28 08:18:31;;;;;;;2.25;0.70;;;;;;;;;;10406558;28;20065;-84
2023/06/28 08:23:36;;;;;;;1.67;0.95;;;;;;;;;;10366284;28;20066;-84
2023/06/28 08:28:39;;;;;;;2.38;1.05;;;;;;;;;;10389511;28;20052;-85
2023/06/28 08:33:53;;;;;;;2.67;0.68;;;;;;;;;;10377412;28;20057;-85
2023/06/28 08:38:57;;;;;;;1.70;0.70;;;;;;;;;;10381820;28;20337;-84
2023/06/28 08:44:02;;;;;;;2.22;0.90;;;;;;;;;;10371035;28;20077;-85
2023/06/28 08:49:07;;;;;;;0.83;0.60;;;;;;;;;;10365403;28;20157;-85
2023/06/28 08:54:12;;;;;;;2.45;0.70;;;;;;;;;;10373338;28;20452;-85
2023/06/28 08:59:16;;;;;;;1.15;0.93;;;;;;;;;;10361810;28;20050;-85
2023/06/28 09:04:22;;;;;;;1.77;0.75;;;;;;;;;;10368517;28;20088;-85
2023/06/28 09:09:26;;;;;;;2.60;0.93;;;;;;;;;;10368787;28;20084;-84
2023/06/28 09:14:30;;;;;;;5.28;1.42;;;;;;;;;;10373555;28;20054;-84
2023/06/28 09:19:36;;;;;;;1.35;0.85;;;;;;;;;;10393529;28;20463;-84
2023/06/28 09:24:39;;;;;;;;;;;;;;;;;;10373998;28;20113;-84
2023/06/28 09:29:42;;;;;;;1.95;1.00;;;;;;;;;;10369408;28;20447;-85
2023/06/28 09:34:47;;;;;;;4.68;1.70;;;;;;;;;;10384566;28;20054;-85
2023/06/28 09:39:50;;;;;;;4.50;1.33;;;;;;;;;;10377752;28;20080;-84
2023/06/28 09:44:56;;;;;;;4.85;1.50;;;;;;;;;;10373409;28;20041;-85
2023/06/28 09:50:03;;;;;;;2.60;1.50;;;;;;;;;;10394164;28;20128;-84
2023/06/28 09:55:07;;;;;;;5.15;1.60;;;;;;;;;;10382626;28;20065;-85
2023/06/28 10:00:13;;;;;;;1.10;0.70;;;;;;;;;;10385313;28;20141;-85
2023/06/28 10:05:18;;;;;;;3.55;1.30;;;;;;;;;;10393013;28;20058;-84
2023/06/28 10:10:21;;;;;;;1.00;0.73;;;;;;;;;;10392213;28;20092;-85
2023/06/28 10:15:26;;;;;;;2.10;1.30;;;;;;;;;;10370287;28;20084;-85
2023/06/28 10:20:31;;;;;;;5.60;1.65;;;;;;;;;;10380295;28;20057;-85
2023/06/28 10:25:35;;;;;;;1.77;1.02;;;;;;;;;;10366154;28;20643;-85
2023/06/28 10:30:40;;;;;;;3.30;1.25;;;;;;;;;;10360751;28;20073;-84
2023/06/28 10:35:46;;;;;;;3.53;1.63;;;;;;;;;;10304353;23;20086;-85
2023/06/28 10:40:49;;;;;;;3.72;1.42;;;;;;;;;;10271765;28;20062;-87
2023/06/28 10:45:54;;;;;;;1.73;0.90;;;;;;;;;;10284725;28;20051;-89
2023/06/28 10:51:01;;;;;;;2.30;0.80;;;;;;;;;;10269665;28;20066;-88
2023/06/28 10:56:13;;;;;;;2.08;0.95;;;;;;;;;;10270290;28;20561;-84
2023/06/28 11:01:32;;;;;;;1.75;0.90;;;;;;;;;;10261673;28;20513;-85
2023/06/28 11:06:39;;;;;;;1.60;0.82;;;;;;;;;;10298743;28;20552;-85
2023/06/28 11:11:55;;;;;;;2.75;1.20;;;;;;;;;;10272297;28;20039;-87
2023/06/28 11:17:02;;;;;;;2.00;1.38;;;;;;;;;;10279816;28;20100;-88
2023/06/28 11:22:12;;;;;;;1.45;0.70;;;;;;;;;;10287177;28;20058;-88
2023/06/28 11:27:22;;;;;;;1.52;0.85;;;;;;;;;;10276631;28;20429;-87
2023/06/28 11:32:36;;;;;;;2.42;1.13;;;;;;;;;;10278673;28;20051;-88
2023/06/28 11:37:44;;;;;;;1.40;0.90;;;;;;;;;;10292665;28;20055;-87
2023/06/28 11:42:48;;;;;;;1.00;0.70;;;;;;;;;;10288062;28;20055;-88
2023/06/28 11:47:57;;;;;;;2.25;1.13;;;;;;;;;;10277847;28;20051;-88
2023/06/28 11:53:06;;;;;;;2.08;0.77;;;;;;;;;;10281360;28;20055;-87
2023/06/28 11:58:11;;;;;;;1.27;0.65;;;;;;;;;;10277989;28;20517;-86
2023/06/28 12:03:15;;;;;;;2.67;1.00;;;;;;;;;;10259867;28;20074;-87
2023/06/28 12:08:20;;;;;;;1.65;0.82;;;;;;;;;;10277895;28;20065;-88
2023/06/28 12:13:24;;;;;;;1.70;0.70;;;;;;;;;;10275843;28;20059;-87
2023/06/28 12:18:58;;;;;;;2.35;0.80;;;;;;;;;;10289771;28;20047;-87
2023/06/28 12:24:20;;;;;;;1.75;0.90;;;;;;;;;;10271284;28;20046;-86
2023/06/28 12:29:25;;;;;;;1.85;1.00;;;;;;;;;;10286057;28;20050;-86
2023/06/28 12:34:31;;;;;;;2.33;0.77;;;;;;;;;;10302586;28;20121;-86
2023/06/28 12:39:40;;;;;;;1.23;0.50;;;;;;;;;;10281568;28;20453;-86
2023/06/28 12:44:51;;;;;;;3.03;1.20;;;;;;;;;;10305786;28;20097;-85
2023/06/28 12:49:55;;;;;;;1.50;0.70;;;;;;;;;;10283650;28;20149;-85
2023/06/28 12:55:01;;;;;;;1.37;0.87;;;;;;;;;;10288473;28;20059;-85
2023/06/28 13:00:06;;;;;;;1.25;0.70;;;;;;;;;;10284961;28;20053;-85
2023/06/28 13:05:10;;;;;;;1.08;0.90;;;;;;;;;;10247714;28;20043;-86
2023/06/28 13:10:15;;;;;;;3.80;1.35;;;;;;;;;;10297100;28;20133;-85
2023/06/28 13:15:18;;;;;;;1.23;0.55;;;;;;;;;;10283553;28;20441;-85
2023/06/28 13:20:22;;;;;;;1.92;1.10;;;;;;;;;;10271804;28;20054;-86
2023/06/28 13:25:27;;;;;;;1.67;1.10;;;;;;;;;;10298999;28;20160;-86
2023/06/28 13:30:30;;;;;;;3.40;1.27;;;;;;;;;;10309678;28;20134;-89
2023/06/28 13:35:34;;;;;;;1.17;0.50;;;;;;;;;;10299457;28;20140;-86
2023/06/28 13:40:39;;;;;;;0.32;0.32;;;;;;;;;;10309132;28;20084;-87
2023/06/28 13:45:46;;;;;;;1.30;0.80;;;;;;;;;;10294990;28;20153;-86
2023/06/28 13:50:51;;;;;;;0.73;0.60;;;;;;;;;;10279095;28;20042;-85
2023/06/28 13:55:58;;;;;;;0.57;0.40;;;;;;;;;;10270452;28;20070;-87
2023/06/28 14:01:02;;;;;;;1.10;0.50;;;;;;;;;;10269222;28;20062;-86
2023/06/28 14:06:06;;;;;;;0.32;0.32;;;;;;;;;;10288302;28;20058;-87
2023/06/28 14:11:12;;;;;;;0.25;0.25;;;;;;;;;;10276303;28;20047;-87
2023/06/28 14:16:17;;;;;;;1.13;0.50;;;;;;;;;;10279760;28;20066;-87
2023/06/28 14:21:21;;;;;;;1.38;0.50;;;;;;;;;;10284610;28;20118;-87
2023/06/28 14:26:30;;;;;;;0.70;0.55;;;;;;;;;;10255423;28;20053;-87
2023/06/28 14:31:33;;;;;;;0.90;0.40;;;;;;;;;;10278778;28;20102;-87
2023/06/28 14:36:38;;;;;;;1.15;0.60;;;;;;;;;;10274493;28;20086;-86
2023/06/28 14:41:43;;;;;;;1.88;0.70;;;;;;;;;;10290474;28;20061;-87
2023/06/28 14:46:46;;;;;;;0.93;0.50;;;;;;;;;;10272730;28;20078;-86
2023/06/28 14:51:50;;;;;;;0.70;0.47;;;;;;;;;;10261546;28;20125;-91
2023/06/28 14:56:56;;;;;;;2.42;0.80;;;;;;;;;;10249676;28;20425;-93
2023/06/28 15:02:00;;;;;;;0.70;0.52;;;;;;;;;;10278894;28;20047;-88
2023/06/28 15:07:04;;;;;;;1.30;0.60;;;;;;;;;;10292568;28;20046;-92
2023/06/28 15:12:09;;;;;;;0.95;0.40;;;;;;;;;;10294469;28;20536;-88
2023/06/28 15:17:15;;;;;;;1.00;0.68;;;;;;;;;;10280037;28;20051;-89
2023/06/28 15:22:19;;;;;;;0.82;0.63;;;;;;;;;;10300457;28;20074;-90
2023/06/28 15:27:24;;;;;;;0.73;0.47;;;;;;;;;;10300434;28;20044;-92
2023/06/28 15:32:29;;;;;;;1.42;0.95;;;;;;;;;;10278648;28;20054;-92
2023/06/28 15:37:34;;;;;;;0.83;0.60;;;;;;;;;;10269717;28;20043;-89
2023/06/28 15:42:39;;;;;;;1.40;0.88;;;;;;;;;;10299537;28;20060;-89
2023/06/28 15:47:45;;;;;;;0.77;0.60;;;;;;;;;;10291168;28;20053;-90
2023/06/28 15:52:50;;;;;;;0.57;0.57;;;;;;;;;;10285288;28;20472;-89
2023/06/28 15:57:59;;;;;;;1.92;0.60;;;;;;;;;;10276220;28;20047;-90
2023/06/28 16:03:03;;;;;;;0.55;0.38;;;;;;;;;;10321010;28;20050;-89
2023/06/28 16:08:07;;;;;;;0.88;0.55;;;;;;;;;;10281851;28;20055;-88
2023/06/28 16:13:14;;;;;;;0.83;0.50;;;;;;;;;;10294877;28;20117;-88
2023/06/28 16:18:18;;;;;;;2.75;0.70;;;;;;;;;;10309251;28;20053;-88
2023/06/28 16:23:21;;;;;;;0.47;0.40;;;;;;;;;;10278024;28;20063;-88
2023/06/28 16:28:26;;;;;;;0.85;0.52;;;;;;;;;;10295116;28;20071;-90
2023/06/28 16:39:07;;;;;;;1.92;0.80;;;;;;;;;;10776724;23;20047;-89
2023/06/28 16:44:12;;;;;;;1.10;0.80;;;;;;;;;;10266079;28;20809;-89
2023/06/28 16:49:16;;;;;;;1.08;0.77;;;;;;;;;;10267351;28;20059;-90
2023/06/28 16:54:22;;;;;;;2.47;0.80;;;;;;;;;;10252239;28;20566;-88
2023/06/28 16:59:27;;;;;;;1.30;0.70;;;;;;;;;;10267467;28;20086;-89
2023/06/28 17:04:34;;;;;;;1.48;0.73;;;;;;;;;;10276513;28;20277;-92
2023/06/28 17:09:39;;;;;;;2.22;0.93;;;;;;;;;;10286062;28;20051;-89
2023/06/28 17:14:44;;;;;;;1.33;0.80;;;;;;;;;;10275026;28;20513;-89
2023/06/28 17:19:48;;;;;;;;;;;;;;;;;;10256417;28;20058;-89
2023/06/28 17:24:51;;;;;;;1.55;0.80;;;;;;;;;;10268724;28;20328;-89
2023/06/28 17:29:56;;;;;;;1.40;0.70;;;;;;;;;;10252527;28;20598;-89
2023/06/28 17:35:00;;;;;;;0.63;0.43;;;;;;;;;;10241918;28;20770;-87
2023/06/28 17:40:05;;;;;;;2.47;0.90;;;;;;;;;;10241297;28;20422;-89
2023/06/28 17:45:11;;;;;;;1.42;0.77;;;;;;;;;;10233121;28;20061;-89
2023/06/28 17:50:23;;;;;;;0.55;0.52;;;;;;;;;;10220948;28;20058;-88
2023/06/28 17:55:29;;;;;;;2.10;0.70;;;;;;;;;;10231560;28;20082;-89
2023/06/28 18:00:36;;;;;;;1.95;0.40;;;;;;;;;;10261520;28;20051;-89
2023/06/28 18:06:10;;;;;;;2.03;0.50;;;;;;;;;;10270739;28;20122;-88
2023/06/28 18:11:18;;;;;;;1.48;0.60;;;;;;;;;;10267171;28;20426;-89
2023/06/28 18:16:24;;;;;;;0.60;0.50;;;;;;;;;;10269630;28;20471;-89
2023/06/28 18:21:28;;;;;;;1.00;0.40;;;;;;;;;;10270251;28;20106;-89
2023/06/28 18:26:40;;;;;;;0.88;0.60;;;;;;;;;;10245208;28;20649;-89
2023/06/28 18:32:01;;;;;;;1.58;0.50;;;;;;;;;;10264254;28;20097;-88
2023/06/28 18:37:06;;;;;;;0.95;0.55;;;;;;;;;;10275839;28;20066;-89
2023/06/28 18:42:12;;;;;;;0.73;0.60;;;;;;;;;;10256583;28;20047;-89
2023/06/28 18:47:24;;;;;;;3.73;0.60;;;;;;;;;;10269878;28;20699;-90
2023/06/28 18:52:28;;;;;;;0.68;0.40;;;;;;;;;;10260059;28;20050;-90
2023/06/28 18:57:38;;;;;;;1.83;0.80;;;;;;;;;;10254524;28;20481;-90
2023/06/28 19:02:46;;;;;;;1.60;0.85;;;;;;;;;;10269044;28;20510;-90
2023/06/28 19:07:57;;;;;;;1.67;0.60;;;;;;;;;;10259103;28;20035;-90
2023/06/28 19:13:01;;;;;;;2.08;0.60;;;;;;;;;;10259485;28;20081;-90
2023/06/28 19:18:09;;;;;;;0.95;0.50;;;;;;;;;;10264140;28;20537;-91
2023/06/28 19:23:14;;;;;;;0.90;0.60;;;;;;;;;;10253137;28;20047;-92
2023/06/28 19:28:33;;;;;;;2.00;0.85;;;;;;;;;;10256052;28;20058;-90
2023/06/28 19:33:38;;;;;;;0.85;0.50;;;;;;;;;;10256327;28;20051;-92
2023/06/28 19:38:41;;;;;;;1.20;0.60;;;;;;;;;;10278657;28;20049;-91
2023/06/28 19:43:45;;;;;;;0.85;0.65;;;;;;;;;;10278970;28;20047;-92
2023/06/28 19:48:51;;;;;;;2.08;0.70;;;;;;;;;;10277219;28;20061;-92
2023/06/28 19:53:54;;;;;;;2.72;0.80;;;;;;;;;;10276325;28;20137;-91
2023/06/28 19:59:02;;;;;;;0.75;0.68;;;;;;;;;;10278016;28;20051;-92
2023/06/28 20:04:11;;;;;;;1.73;0.63;;;;;;;;;;10285614;28;20573;-92
2023/06/28 20:09:15;;;;;;;0.57;0.57;;;;;;;;;;10281780;28;20529;-92
